createdAt,value
2022-09-15T00:01:16.931Z,3.13
2022-09-15T00:03:44.425Z,3.70
2022-09-15T00:06:12.863Z,3.47
2022-09-15T00:08:41.429Z,3.15
2022-09-15T00:11:14.317Z,3.45
2022-09-15T00:13:42.193Z,3.63
2022-09-15T00:16:14.804Z,3.13
2022-09-15T00:18:43.670Z,3.63
2022-09-15T00:21:14.447Z,3.47
2022-09-15T00:23:42.753Z,3.10
2022-09-15T00:26:13.804Z,3.28
2022-09-15T00:28:42.085Z,2.92
2022-09-15T00:31:12.806Z,2.72
2022-09-15T00:33:40.498Z,3.08
2022-09-15T00:36:10.172Z,3.08
2022-09-15T00:38:38.682Z,3.10
2022-09-15T00:41:08.297Z,2.95
2022-09-15T00:43:46.813Z,3.00
2022-09-15T00:46:16.163Z,2.38
2022-09-15T00:49:15.205Z,3.47
2022-09-15T00:51:52.079Z,2.17
2022-09-15T00:54:25.605Z,2.50
2022-09-15T00:56:58.479Z,2.63
2022-09-15T00:59:28.827Z,2.47
2022-09-15T01:02:03.506Z,2.90
2022-09-15T01:04:31.088Z,2.53
2022-09-15T01:07:03.902Z,2.40
2022-09-15T01:09:40.053Z,2.60
2022-09-15T01:12:07.843Z,2.20
2022-09-15T01:14:35.250Z,2.25
2022-09-15T01:17:28.343Z,2.50
2022-09-15T01:20:23.903Z,2.40
2022-09-15T01:23:23.971Z,2.60
2022-09-15T01:26:04.798Z,2.53
2022-09-15T01:29:01.363Z,2.40
2022-09-15T01:32:40.005Z,2.38
2022-09-15T01:35:22.535Z,1.60
2022-09-15T01:37:56.890Z,2.45
2022-09-15T01:40:30.101Z,2.10
2022-09-15T01:43:00.180Z,2.17
2022-09-15T01:45:31.322Z,2.00
2022-09-15T01:48:01.388Z,2.03
2022-09-15T01:50:37.540Z,2.08
2022-09-15T01:53:11.564Z,2.13
2022-09-15T01:56:05.767Z,1.80
2022-09-15T01:58:34.427Z,1.73
2022-09-15T02:01:20.161Z,1.80
2022-09-15T02:04:05.392Z,1.80
2022-09-15T02:06:46.720Z,1.70
2022-09-15T02:09:28.721Z,2.00
2022-09-15T02:12:02.301Z,2.00
2022-09-15T02:14:51.077Z,1.88
2022-09-15T02:17:21.322Z,1.73
2022-09-15T02:19:58.146Z,1.80
2022-09-15T02:22:32.037Z,1.50
2022-09-15T02:25:12.824Z,1.83
2022-09-15T02:27:47.158Z,1.58
2022-09-15T02:30:16.812Z,2.15
2022-09-15T02:32:58.936Z,1.85
2022-09-15T02:35:29.071Z,1.98
2022-09-15T02:37:57.332Z,1.80
2022-09-15T02:40:24.790Z,1.70
2022-09-15T02:42:57.818Z,1.70
2022-09-15T02:45:25.859Z,1.50
2022-09-15T02:47:53.343Z,1.80
2022-09-15T02:50:20.804Z,2.03
2022-09-15T02:52:48.331Z,1.45
2022-09-15T02:55:16.502Z,1.80
2022-09-15T02:57:44.839Z,2.30
2022-09-15T03:00:13.764Z,1.52
2022-09-15T03:02:43.801Z,1.60
2022-09-15T03:05:13.556Z,1.58
2022-09-15T03:07:41.273Z,2.00
2022-09-15T03:10:10.648Z,1.80
2022-09-15T03:12:39.813Z,1.50
2022-09-15T03:15:09.371Z,1.52
2022-09-15T03:17:38.560Z,1.63
2022-09-15T03:20:08.423Z,1.55
2022-09-15T03:22:36.248Z,1.38
2022-09-15T03:25:05.828Z,1.50
2022-09-15T03:27:34.879Z,1.40
2022-09-15T03:30:02.766Z,1.25
2022-09-15T03:32:30.516Z,1.40
2022-09-15T03:34:58.823Z,1.20
2022-09-15T03:37:26.679Z,1.20
2022-09-15T03:39:54.118Z,1.40
2022-09-15T03:42:21.952Z,1.20
2022-09-15T03:44:49.652Z,1.02
2022-09-15T03:47:17.208Z,1.23
2022-09-15T03:49:44.797Z,1.00
2022-09-15T03:52:12.494Z,0.98
2022-09-15T03:54:40.299Z,1.33
2022-09-15T03:57:07.824Z,1.17
2022-09-15T03:59:35.280Z,1.00
2022-09-15T04:02:02.742Z,1.00
2022-09-15T04:04:30.300Z,1.40
2022-09-15T04:06:57.749Z,1.20
2022-09-15T04:09:26.056Z,1.50
2022-09-15T04:11:57.797Z,1.20
2022-09-15T04:14:25.668Z,1.60
2022-09-15T04:16:53.468Z,1.55
2022-09-15T04:19:20.974Z,1.73
2022-09-15T04:21:48.300Z,1.40
2022-09-15T04:24:15.931Z,1.90
2022-09-15T04:26:43.417Z,1.95
2022-09-15T04:29:16.722Z,1.98
2022-09-15T04:31:44.171Z,2.30
2022-09-15T04:34:11.896Z,2.10
2022-09-15T04:36:39.767Z,2.33
2022-09-15T04:39:07.372Z,2.38
2022-09-15T04:41:35.029Z,2.25
2022-09-15T04:44:02.914Z,2.30
2022-09-15T04:46:31.300Z,2.40
2022-09-15T04:48:58.771Z,2.83
2022-09-15T04:51:27.288Z,2.80
2022-09-15T04:53:55.372Z,2.25
2022-09-15T04:56:25.643Z,2.45
2022-09-15T04:59:03.499Z,2.58
2022-09-15T05:01:34.729Z,2.40
2022-09-15T05:04:07.433Z,2.10
2022-09-15T05:06:37.187Z,2.40
2022-09-15T05:09:10.207Z,2.03
2022-09-15T05:11:42.007Z,1.27
2022-09-15T05:14:11.995Z,1.08
2022-09-15T05:16:40.559Z,1.00
2022-09-15T05:19:10.910Z,1.73
2022-09-15T05:21:59.848Z,1.50
2022-09-15T05:24:30.375Z,1.60
2022-09-15T05:26:59.522Z,1.50
2022-09-15T05:29:27.709Z,1.20
2022-09-15T05:31:55.705Z,1.40
2022-09-15T05:34:24.317Z,1.25
2022-09-15T05:36:52.610Z,1.30
2022-09-15T05:39:20.239Z,0.85
2022-09-15T05:47:05.110Z,1.02
2022-09-15T05:49:33.341Z,1.45
2022-09-15T05:52:02.870Z,1.02
2022-09-15T05:54:30.694Z,1.10
2022-09-15T05:57:00.521Z,1.10
2022-09-15T05:59:29.157Z,1.40
2022-09-15T06:01:57.143Z,1.33
2022-09-15T06:04:26.265Z,1.50
2022-09-15T06:06:54.793Z,1.65
2022-09-15T06:09:23.485Z,2.17
2022-09-15T06:11:53.812Z,1.50
2022-09-15T06:14:22.365Z,1.75
2022-09-15T06:16:50.636Z,1.70
2022-09-15T06:19:19.544Z,1.50
2022-09-15T06:21:51.295Z,1.23
2022-09-15T06:24:19.494Z,1.10
2022-09-15T06:26:48.890Z,1.10
2022-09-15T06:31:53.280Z,1.20
2022-09-15T06:34:21.778Z,1.00
2022-09-15T06:36:49.266Z,1.20
2022-09-15T06:39:19.769Z,1.10
2022-09-15T06:44:42.240Z,1.17
2022-09-15T06:48:07.382Z,1.20
2022-09-15T06:50:38.211Z,1.20
2022-09-15T06:53:08.404Z,1.38
2022-09-15T06:55:40.092Z,1.60
2022-09-15T07:00:49.512Z,1.40
2022-09-15T07:03:17.287Z,1.15
2022-09-15T07:05:46.567Z,1.30
2022-09-15T07:08:14.322Z,1.25
2022-09-15T07:10:45.164Z,1.10
2022-09-15T07:13:13.858Z,1.85
2022-09-15T07:15:42.085Z,1.50
2022-09-15T07:18:10.001Z,1.80
2022-09-15T07:20:39.309Z,1.60
2022-09-15T07:23:07.593Z,1.63
2022-09-15T07:25:36.793Z,1.58
2022-09-15T07:28:05.588Z,2.72
2022-09-15T07:30:34.777Z,2.00
2022-09-15T07:33:03.443Z,2.10
2022-09-15T07:35:31.552Z,2.05
2022-09-15T07:37:59.400Z,2.25
2022-09-15T07:40:30.032Z,2.10
2022-09-15T07:42:57.572Z,1.85
2022-09-15T07:45:26.802Z,1.50
2022-09-15T07:47:56.882Z,1.30
2022-09-15T07:50:24.394Z,1.70
2022-09-15T07:55:37.885Z,1.40
2022-09-15T07:58:24.272Z,1.45
2022-09-15T08:04:26.237Z,1.05
2022-09-15T08:07:00.958Z,1.10
2022-09-15T08:09:28.877Z,1.50
2022-09-15T08:11:56.780Z,1.30
2022-09-15T08:17:13.097Z,1.20
2022-09-15T08:19:41.140Z,1.27
2022-09-15T08:22:08.780Z,1.25
2022-09-15T08:24:38.560Z,0.90
2022-09-15T08:27:07.098Z,1.00
2022-09-15T08:33:12.379Z,0.90
2022-09-15T08:35:40.216Z,1.27
2022-09-15T08:38:07.790Z,1.23
2022-09-15T08:40:55.999Z,0.98
2022-09-15T08:53:17.198Z,1.10
2022-09-15T08:56:07.083Z,1.13
2022-09-15T09:02:00.630Z,1.25
2022-09-15T09:04:34.519Z,1.13
2022-09-15T09:07:35.933Z,1.52
2022-09-15T09:10:19.650Z,1.33
2022-09-15T09:12:56.219Z,1.63
2022-09-15T09:15:43.584Z,1.50
2022-09-15T09:18:49.589Z,1.02
2022-09-15T09:21:30.278Z,1.05
2022-09-15T09:24:20.729Z,1.27
2022-09-15T09:26:57.746Z,0.98
2022-09-15T09:29:37.211Z,1.10
2022-09-15T09:32:31.490Z,1.00
2022-09-15T09:35:37.657Z,0.90
2022-09-15T09:39:06.449Z,1.17
2022-09-15T09:41:43.530Z,1.00
2022-09-15T09:44:18.155Z,0.80
2022-09-15T09:46:59.769Z,0.85
2022-09-15T09:49:50.066Z,1.08
2022-09-15T09:52:39.621Z,1.30
2022-09-15T10:09:33.389Z,1.25
2022-09-15T10:12:07.721Z,1.20
2022-09-15T10:14:45.822Z,1.20
2022-09-15T10:17:25.435Z,0.90
2022-09-15T10:19:56.986Z,1.10
2022-09-15T10:22:28.209Z,1.20
2022-09-15T10:25:06.390Z,0.95
2022-09-15T10:27:36.700Z,1.05
2022-09-15T10:30:13.886Z,0.93
2022-09-15T10:32:43.849Z,0.80
2022-09-15T10:35:23.168Z,0.80
2022-09-15T10:38:12.533Z,1.10
2022-09-15T10:41:04.205Z,0.60
2022-09-15T10:44:02.803Z,1.08
2022-09-15T10:46:58.542Z,0.70
2022-09-15T10:49:32.224Z,1.00
2022-09-15T10:58:56.921Z,1.02
2022-09-15T11:01:31.243Z,0.90
2022-09-15T11:04:19.246Z,1.00
2022-09-15T11:10:00.186Z,0.82
2022-09-15T11:12:45.291Z,0.93
2022-09-15T11:15:32.257Z,1.10
2022-09-15T11:18:43.110Z,0.95
2022-09-15T11:21:38.348Z,0.95
2022-09-15T11:24:06.308Z,1.00
2022-09-15T11:26:50.184Z,0.90
2022-09-15T11:29:51.933Z,1.10
2022-09-15T11:32:32.905Z,1.10
2022-09-15T11:35:27.888Z,1.10
2022-09-15T11:38:01.737Z,1.20
2022-09-15T11:40:37.466Z,1.30
2022-09-15T11:43:29.752Z,1.05
2022-09-15T11:46:00.833Z,1.00
2022-09-15T11:48:41.375Z,1.05
2022-09-15T11:51:11.437Z,2.33
2022-09-15T11:53:48.414Z,1.10
2022-09-15T11:56:23.835Z,1.48
2022-09-15T11:59:37.202Z,1.58
2022-09-15T12:02:27.915Z,0.88
2022-09-15T12:05:17.881Z,1.20
2022-09-15T12:07:53.694Z,1.00
2022-09-15T12:10:50.876Z,1.13
2022-09-15T12:15:50.768Z,0.70
2022-09-15T12:18:43.894Z,1.10
2022-09-15T12:21:23.708Z,1.02
2022-09-15T12:24:09.504Z,0.80
2022-09-15T12:26:37.146Z,1.05
2022-09-15T12:29:27.425Z,0.90
2022-09-15T12:32:17.126Z,0.93
2022-09-15T12:35:13.453Z,1.10
2022-09-15T12:38:13.555Z,0.80
2022-09-15T12:40:42.559Z,0.80
2022-09-15T12:43:16.440Z,0.93
2022-09-15T12:45:57.356Z,0.82
2022-09-15T12:48:28.698Z,0.88
2022-09-15T12:51:05.980Z,0.90
2022-09-15T12:53:38.019Z,0.98
2022-09-15T12:56:12.560Z,1.10
2022-09-15T12:58:50.278Z,1.10
2022-09-15T13:01:24.269Z,1.25
2022-09-15T13:03:54.078Z,1.00
2022-09-15T13:06:24.508Z,1.10
2022-09-15T13:08:53.089Z,0.80
2022-09-15T13:11:23.751Z,0.98
2022-09-15T13:14:13.939Z,1.00
2022-09-15T13:16:44.319Z,1.08
2022-09-15T13:19:29.518Z,0.98
2022-09-15T13:22:00.581Z,0.95
2022-09-15T13:24:38.259Z,1.17
2022-09-15T13:27:08.408Z,1.23
2022-09-15T13:29:49.942Z,1.08
2022-09-15T13:32:39.997Z,1.00
2022-09-15T13:35:20.936Z,1.05
2022-09-15T13:38:13.691Z,1.23
2022-09-15T13:41:03.433Z,1.00
2022-09-15T13:43:44.601Z,1.23
2022-09-15T13:46:21.719Z,0.95
2022-09-15T13:49:09.050Z,1.20
2022-09-15T13:51:40.782Z,1.17
2022-09-15T13:54:17.547Z,1.00
2022-09-15T13:56:47.511Z,1.05
2022-09-15T13:59:30.311Z,1.02
2022-09-15T14:01:59.691Z,1.10
2022-09-15T14:04:31.237Z,1.15
2022-09-15T14:07:01.725Z,1.13
2022-09-15T14:09:44.958Z,1.00
2022-09-15T14:12:15.365Z,1.00
2022-09-15T14:14:52.406Z,1.00
2022-09-15T14:17:26.902Z,0.85
2022-09-15T14:19:59.900Z,1.02
2022-09-15T14:22:33.545Z,1.23
2022-09-15T14:25:07.248Z,1.30
2022-09-15T14:27:36.882Z,1.20
2022-09-15T14:30:07.937Z,1.10
2022-09-15T14:32:40.078Z,1.30
2022-09-15T14:35:10.015Z,1.02
2022-09-15T14:37:37.886Z,1.20
2022-09-15T14:40:27.447Z,0.90
2022-09-15T14:42:55.931Z,1.10
2022-09-15T14:48:30.886Z,1.10
2022-09-15T14:51:03.279Z,0.90
2022-09-15T14:53:35.567Z,0.90
2022-09-15T14:56:15.622Z,1.05
2022-09-15T14:58:50.642Z,1.25
2022-09-15T15:01:49.530Z,1.27
2022-09-15T15:04:21.896Z,1.42
2022-09-15T15:06:56.316Z,0.93
2022-09-15T15:09:47.806Z,1.10
2022-09-15T15:12:29.090Z,1.30
2022-09-15T15:14:57.344Z,1.15
2022-09-15T15:17:37.256Z,1.10
2022-09-15T15:20:11.058Z,1.20
2022-09-15T15:22:40.839Z,1.25
2022-09-15T15:25:28.135Z,1.20
2022-09-15T15:27:58.434Z,1.13
2022-09-15T15:30:31.916Z,1.10
2022-09-15T15:33:21.493Z,1.20
2022-09-15T15:36:02.746Z,1.40
2022-09-15T15:38:35.511Z,1.30
2022-09-15T15:41:06.502Z,1.23
2022-09-15T15:43:34.719Z,1.00
2022-09-15T15:46:09.920Z,1.20
2022-09-15T15:48:38.437Z,1.10
2022-09-15T15:51:07.849Z,1.10
2022-09-15T15:53:35.792Z,1.27
2022-09-15T15:56:03.601Z,1.35
2022-09-15T15:58:31.743Z,1.20
2022-09-15T16:00:59.249Z,1.50
2022-09-15T16:03:27.891Z,1.10
2022-09-15T16:05:59.185Z,1.17
2022-09-15T16:11:03.402Z,1.60
2022-09-15T16:13:31.676Z,1.35
2022-09-15T16:16:01.377Z,1.38
2022-09-15T16:18:29.529Z,1.08
2022-09-15T16:20:57.317Z,1.30
2022-09-15T16:23:24.793Z,1.13
2022-09-15T16:26:27.308Z,1.52
2022-09-15T16:28:54.796Z,1.40
2022-09-15T16:31:22.409Z,1.40
2022-09-15T16:33:50.120Z,1.40
2022-09-15T16:36:18.471Z,1.30
2022-09-15T16:38:46.978Z,1.25
2022-09-15T16:41:19.127Z,1.08
2022-09-15T16:43:47.717Z,1.40
2022-09-15T16:46:16.109Z,1.13
2022-09-15T16:48:44.618Z,1.30
2022-09-15T16:51:31.766Z,0.90
2022-09-15T16:53:59.822Z,1.10
2022-09-15T16:56:27.574Z,0.90
2022-09-15T16:59:01.096Z,0.90
2022-09-15T17:01:29.049Z,1.70
2022-09-15T17:03:56.644Z,0.90
2022-09-15T17:06:24.983Z,0.90
2022-09-15T17:08:52.965Z,0.90
2022-09-15T17:11:24.076Z,0.93
2022-09-15T17:13:53.169Z,0.88
2022-09-15T17:16:21.178Z,0.70
2022-09-15T17:18:49.301Z,1.00
2022-09-15T17:21:18.135Z,0.90
2022-09-15T17:23:49.580Z,1.13
2022-09-15T17:26:31.593Z,0.90
2022-09-15T17:28:59.335Z,1.00
2022-09-15T17:31:28.075Z,0.90
2022-09-15T17:33:55.644Z,0.90
2022-09-15T17:36:23.446Z,0.93
2022-09-15T17:38:50.927Z,0.88
2022-09-15T17:41:20.137Z,0.80
2022-09-15T17:43:48.447Z,1.15
2022-09-15T17:48:56.109Z,0.80
2022-09-15T17:51:23.621Z,0.90
2022-09-15T17:53:55.082Z,0.80
2022-09-15T17:56:22.559Z,0.90
2022-09-15T17:58:49.927Z,1.10
2022-09-15T18:01:17.435Z,0.77
2022-09-15T18:03:45.675Z,1.10
2022-09-15T18:06:13.703Z,0.80
2022-09-15T18:08:41.738Z,1.10
2022-09-15T18:11:11.123Z,1.30
2022-09-15T18:13:38.469Z,0.85
2022-09-15T18:16:10.375Z,1.05
2022-09-15T18:18:40.440Z,1.10
2022-09-15T18:21:12.028Z,1.10
2022-09-15T18:28:51.866Z,1.10
2022-09-15T18:31:34.688Z,1.10
2022-09-15T18:34:02.298Z,1.25
2022-09-15T18:36:29.922Z,1.27
2022-09-15T18:38:57.832Z,1.20
2022-09-15T18:41:25.488Z,1.65
2022-09-15T18:43:52.996Z,1.20
2022-09-15T18:46:20.880Z,1.38
2022-09-15T18:48:49.637Z,1.35
2022-09-15T18:51:24.232Z,1.33
2022-09-15T18:53:58.029Z,1.23
2022-09-15T18:56:25.626Z,1.48
2022-09-15T18:58:55.622Z,1.60
2022-09-15T19:01:23.590Z,1.33
2022-09-15T19:03:51.620Z,1.17
2022-09-15T19:06:19.263Z,1.60
2022-09-15T19:08:47.275Z,1.23
2022-09-15T19:11:14.813Z,1.50
2022-09-15T19:13:42.342Z,1.80
2022-09-15T19:16:10.092Z,1.70
2022-09-15T19:18:37.709Z,1.60
2022-09-15T19:21:10.704Z,1.50
2022-09-15T19:23:39.448Z,1.60
2022-09-15T19:26:09.600Z,1.73
2022-09-15T19:28:37.380Z,2.03
2022-09-15T19:31:05.470Z,2.25
2022-09-15T19:33:33.214Z,1.90
2022-09-15T19:36:26.928Z,1.88
2022-09-15T19:38:53.562Z,2.13
2022-09-15T19:41:21.167Z,2.40
2022-09-15T19:43:48.748Z,2.22
2022-09-15T19:46:18.990Z,2.20
2022-09-15T19:48:47.920Z,2.13
2022-09-15T19:51:18.272Z,2.05
2022-09-15T19:53:46.757Z,2.10
2022-09-15T19:56:18.271Z,2.20
2022-09-15T19:58:46.432Z,1.80
2022-09-15T20:01:14.599Z,2.20
2022-09-15T20:06:31.635Z,2.30
2022-09-15T20:09:00.046Z,2.13
2022-09-15T20:11:28.709Z,2.17
2022-09-15T20:13:56.724Z,2.10
2022-09-15T20:16:26.315Z,2.15
2022-09-15T20:18:55.122Z,2.05
2022-09-15T20:21:49.160Z,1.90
2022-09-15T20:24:18.414Z,1.88
2022-09-15T20:26:45.982Z,2.10
2022-09-15T20:29:13.702Z,1.65
2022-09-15T20:31:41.594Z,1.48
2022-09-15T20:34:09.023Z,2.42
2022-09-15T20:36:38.990Z,1.77
2022-09-15T20:39:10.642Z,1.70
2022-09-15T20:41:38.982Z,1.48
2022-09-15T20:44:09.541Z,1.50
2022-09-15T20:46:37.455Z,1.40
2022-09-15T20:49:05.438Z,1.45
2022-09-15T20:51:34.123Z,1.30
2022-09-15T20:54:04.307Z,1.13
2022-09-15T20:56:35.375Z,1.30
2022-09-15T20:59:04.361Z,1.00
2022-09-15T21:01:37.470Z,0.70
2022-09-15T21:04:07.074Z,0.70
2022-09-15T21:06:35.234Z,0.82
2022-09-15T21:09:03.941Z,0.90
2022-09-15T21:11:32.203Z,0.90
2022-09-15T21:13:59.749Z,0.88
2022-09-15T21:16:28.640Z,0.90
2022-09-15T21:18:58.373Z,1.00
2022-09-15T21:21:32.099Z,1.00
2022-09-15T21:24:04.057Z,1.00
2022-09-15T21:26:58.820Z,1.10
2022-09-15T21:29:27.946Z,0.80
2022-09-15T21:31:56.091Z,1.20
2022-09-15T21:34:24.156Z,1.00
2022-09-15T21:36:53.869Z,1.00
2022-09-15T21:39:21.648Z,0.80
2022-09-15T21:41:49.990Z,0.90
2022-09-15T21:44:17.486Z,1.00
2022-09-15T21:46:47.083Z,0.80
2022-09-15T21:49:14.975Z,1.00
2022-09-15T21:51:42.616Z,1.10
2022-09-15T21:54:10.551Z,1.02
2022-09-15T21:56:38.070Z,1.30
2022-09-15T21:59:06.457Z,1.40
2022-09-15T22:01:34.172Z,1.20
2022-09-15T22:04:07.273Z,1.10
2022-09-15T22:06:36.774Z,1.38
2022-09-15T22:09:07.914Z,1.20
2022-09-15T22:11:36.381Z,1.05
2022-09-15T22:14:08.349Z,1.05
2022-09-15T22:16:38.164Z,1.08
2022-09-15T22:19:07.301Z,1.13
2022-09-15T22:21:37.179Z,0.90
2022-09-15T22:24:07.408Z,1.40
2022-09-15T22:26:37.863Z,0.98
2022-09-15T22:29:06.524Z,1.20
2022-09-15T22:31:34.848Z,1.17
2022-09-15T22:34:02.869Z,1.33
2022-09-15T22:36:32.134Z,1.20
2022-09-15T22:39:04.660Z,1.30
2022-09-15T22:41:34.660Z,1.23
2022-09-15T22:44:03.259Z,1.20
2022-09-15T22:46:30.840Z,1.23
2022-09-15T22:48:58.575Z,1.40
2022-09-15T22:51:26.135Z,1.15
2022-09-15T22:53:57.483Z,1.48
2022-09-15T22:56:26.839Z,1.13
2022-09-15T22:58:56.257Z,1.20
2022-09-15T23:01:29.746Z,1.50
2022-09-15T23:03:59.485Z,1.60
2022-09-15T23:06:29.420Z,1.58
2022-09-15T23:08:59.103Z,1.80
2022-09-15T23:11:28.571Z,1.75
2022-09-15T23:13:56.546Z,1.50
2022-09-15T23:16:25.638Z,1.50
2022-09-15T23:18:54.027Z,1.50
2022-09-15T23:21:21.789Z,1.60
2022-09-15T23:23:49.816Z,1.20
2022-09-15T23:26:20.162Z,1.52
2022-09-15T23:28:49.758Z,1.40
2022-09-15T23:31:18.496Z,1.42
2022-09-15T23:33:46.570Z,1.50
2022-09-15T23:36:16.732Z,1.30
2022-09-15T23:38:45.698Z,1.40
2022-09-15T23:41:14.794Z,1.63
2022-09-15T23:43:42.402Z,1.30
2022-09-15T23:46:10.657Z,1.58
2022-09-15T23:48:38.641Z,1.63
2022-09-15T23:51:06.212Z,1.60
2022-09-15T23:53:34.049Z,1.67
2022-09-15T23:56:02.119Z,1.30
2022-09-15T23:58:29.727Z,1.60
